createdAt,value
2018-08-09T00:00:06.529Z,7.30
2018-08-09T00:02:35.156Z,7.50
2018-08-09T00:05:03.758Z,7.20
2018-08-09T00:07:32.330Z,7.43
2018-08-09T00:10:01.028Z,6.63
2018-08-09T00:12:29.735Z,6.60
2018-08-09T00:14:58.501Z,6.50
2018-08-09T00:17:27.216Z,6.57
2018-08-09T00:19:56.119Z,7.10
2018-08-09T00:22:24.977Z,6.87
2018-08-09T00:24:53.510Z,7.13
2018-08-09T00:27:22.333Z,6.63
2018-08-09T00:29:50.946Z,7.00
2018-08-09T00:32:19.586Z,7.03
2018-08-09T00:34:48.675Z,7.47
2018-08-09T00:37:17.231Z,7.57
2018-08-09T00:39:46.159Z,7.43
2018-08-09T00:42:14.788Z,6.00
2018-08-09T00:44:43.366Z,6.93
2018-08-09T00:47:12.073Z,6.90
2018-08-09T00:49:40.999Z,7.00
2018-08-09T00:52:09.762Z,6.87
2018-08-09T00:54:38.337Z,7.70
2018-08-09T00:57:07.159Z,6.83
2018-08-09T00:59:35.817Z,6.77
2018-08-09T01:02:04.393Z,6.60
2018-08-09T01:04:32.938Z,7.23
2018-08-09T01:07:01.492Z,6.90
2018-08-09T01:09:30.304Z,6.80
2018-08-09T01:11:58.830Z,7.00
2018-08-09T01:14:27.423Z,7.33
2018-08-09T01:16:55.952Z,7.83
2018-08-09T01:19:24.650Z,7.17
2018-08-09T01:21:53.234Z,6.83
2018-08-09T01:24:21.757Z,7.63
2018-08-09T01:26:50.337Z,7.70
2018-08-09T01:29:18.938Z,7.50
2018-08-09T01:31:47.514Z,6.90
2018-08-09T01:34:16.221Z,7.90
2018-08-09T01:36:44.775Z,7.80
2018-08-09T01:39:14.388Z,7.50
2018-08-09T01:41:53.930Z,7.80
2018-08-09T01:44:22.453Z,7.73
2018-08-09T01:46:50.977Z,7.43
2018-08-09T01:49:19.519Z,7.47
2018-08-09T01:51:48.085Z,7.47
2018-08-09T01:54:16.714Z,7.67
2018-08-09T01:56:45.225Z,7.30
2018-08-09T01:59:13.770Z,7.13
2018-08-09T02:01:42.382Z,7.90
2018-08-09T02:04:10.894Z,7.37
2018-08-09T02:06:39.440Z,6.87
2018-08-09T02:09:11.249Z,6.90
2018-08-09T02:11:40.167Z,7.07
2018-08-09T02:14:08.785Z,7.00
2018-08-09T02:16:37.416Z,7.00
2018-08-09T02:19:05.940Z,7.10
2018-08-09T02:21:34.561Z,7.20
2018-08-09T02:24:03.089Z,6.80
2018-08-09T02:26:31.635Z,7.30
2018-08-09T02:29:00.278Z,8.00
2018-08-09T02:31:28.896Z,7.40
2018-08-09T02:33:57.430Z,7.53
2018-08-09T02:36:25.965Z,6.93
2018-08-09T02:38:54.874Z,7.23
2018-08-09T02:41:23.485Z,7.23
2018-08-09T02:43:52.062Z,7.33
2018-08-09T02:46:20.865Z,7.33
2018-08-09T02:48:49.822Z,7.00
2018-08-09T02:51:18.395Z,7.23
2018-08-09T02:53:46.943Z,7.20
2018-08-09T02:56:15.533Z,8.00
2018-08-09T02:58:44.118Z,6.83
2018-08-09T03:01:12.798Z,7.30
2018-08-09T03:03:41.541Z,7.20
2018-08-09T03:06:10.205Z,8.33
2018-08-09T03:08:39.105Z,6.90
2018-08-09T03:11:07.906Z,7.93
2018-08-09T03:13:36.439Z,7.37
2018-08-09T03:16:05.161Z,8.00
2018-08-09T03:18:33.862Z,8.23
2018-08-09T03:21:02.518Z,8.17
2018-08-09T03:23:31.066Z,8.13
2018-08-09T03:25:59.675Z,7.47
2018-08-09T03:28:28.407Z,7.53
2018-08-09T03:30:57.034Z,7.50
2018-08-09T03:33:25.642Z,7.00
2018-08-09T03:35:54.181Z,6.93
2018-08-09T03:38:22.734Z,7.27
2018-08-09T03:40:51.294Z,7.33
2018-08-09T03:43:20.250Z,7.03
2018-08-09T03:45:48.939Z,7.33
2018-08-09T03:48:17.466Z,6.47
2018-08-09T03:50:46.064Z,7.00
2018-08-09T03:53:14.579Z,6.47
2018-08-09T03:55:43.138Z,6.80
2018-08-09T03:58:11.908Z,7.07
2018-08-09T04:00:41.637Z,7.13
2018-08-09T04:03:10.260Z,6.20
2018-08-09T04:05:38.876Z,7.10
2018-08-09T04:08:07.902Z,7.53
2018-08-09T04:10:36.608Z,7.67
2018-08-09T04:13:05.309Z,6.87
2018-08-09T04:15:34.421Z,7.23
2018-08-09T04:18:02.976Z,7.47
2018-08-09T04:20:31.746Z,7.17
2018-08-09T04:23:00.335Z,7.30
2018-08-09T04:25:28.821Z,7.10
2018-08-09T04:27:57.415Z,7.00
2018-08-09T04:30:26.065Z,6.70
2018-08-09T04:32:54.883Z,7.63
2018-08-09T04:35:23.454Z,7.73
2018-08-09T04:37:52.144Z,8.63
2018-08-09T04:40:20.763Z,8.33
2018-08-09T04:42:49.509Z,7.30
2018-08-09T04:45:18.178Z,6.77
2018-08-09T04:47:46.705Z,7.90
2018-08-09T04:50:15.257Z,7.97
2018-08-09T04:52:44.040Z,7.47
2018-08-09T04:55:12.624Z,7.80
2018-08-09T04:57:41.251Z,7.57
2018-08-09T05:00:10.119Z,7.23
2018-08-09T05:02:38.698Z,7.90
2018-08-09T05:05:07.337Z,7.63
2018-08-09T05:07:35.884Z,7.47
2018-08-09T05:10:10.250Z,9.00
2018-08-09T05:12:40.947Z,8.00
2018-08-09T05:15:09.465Z,8.40
2018-08-09T05:17:38.001Z,8.30
2018-08-09T05:20:06.983Z,8.03
2018-08-09T05:22:35.866Z,8.00
2018-08-09T05:25:05.272Z,7.03
2018-08-09T05:27:33.931Z,7.10
2018-08-09T05:30:02.612Z,8.10
2018-08-09T05:32:31.445Z,7.90
2018-08-09T05:35:00.010Z,8.30
2018-08-09T05:37:28.973Z,8.40
2018-08-09T05:39:58.218Z,7.60
2018-08-09T05:42:26.746Z,8.13
2018-08-09T05:44:55.495Z,7.27
2018-08-09T05:47:24.055Z,7.60
2018-08-09T05:49:52.592Z,6.80
2018-08-09T05:52:21.214Z,7.20
2018-08-09T05:54:50.181Z,7.30
2018-08-09T05:57:18.734Z,6.77
2018-08-09T05:59:47.559Z,6.37
2018-08-09T06:02:16.189Z,7.03
2018-08-09T06:04:44.713Z,7.53
2018-08-09T06:07:13.762Z,7.33
2018-08-09T06:09:42.575Z,7.33
2018-08-09T06:12:11.149Z,7.17
2018-08-09T06:14:39.888Z,7.33
2018-08-09T06:17:08.483Z,8.00
2018-08-09T06:19:37.105Z,7.70
2018-08-09T06:22:05.725Z,7.77
2018-08-09T06:24:34.290Z,7.90
2018-08-09T06:27:02.810Z,7.00
2018-08-09T06:29:31.348Z,7.00
2018-08-09T06:32:00.080Z,7.00
2018-08-09T06:34:28.890Z,7.83
2018-08-09T06:36:57.452Z,8.03
2018-08-09T06:39:26.146Z,8.40
2018-08-09T06:41:59.553Z,10.40
2018-08-09T06:44:28.687Z,10.83
2018-08-09T06:46:57.262Z,11.17
2018-08-09T06:49:25.893Z,13.10
2018-08-09T06:51:54.741Z,13.03
2018-08-09T06:54:23.761Z,19.40
2018-08-09T06:56:52.684Z,20.50
2018-08-09T06:59:21.484Z,18.57
2018-08-09T07:01:50.367Z,19.77
2018-08-09T07:04:19.546Z,22.47
2018-08-09T07:06:48.265Z,23.47
2018-08-09T07:09:17.011Z,20.87
2018-08-09T07:11:45.690Z,21.40
2018-08-09T07:14:14.332Z,20.13
2018-08-09T07:16:42.956Z,20.63
2018-08-09T07:19:11.619Z,20.83
2018-08-09T07:21:40.485Z,20.93
2018-08-09T07:24:09.188Z,20.97
2018-08-09T07:26:37.909Z,21.20
2018-08-09T07:29:06.635Z,21.90
2018-08-09T07:31:35.378Z,25.73
2018-08-09T07:34:04.258Z,26.17
2018-08-09T07:36:33.068Z,23.63
2018-08-09T07:39:02.190Z,25.93
2018-08-09T07:41:30.779Z,23.53
2018-08-09T07:43:59.678Z,24.50
2018-08-09T07:46:28.548Z,22.53
2018-08-09T07:48:57.301Z,20.80
2018-08-09T07:51:25.986Z,21.20
2018-08-09T07:53:54.857Z,21.23
2018-08-09T07:56:23.688Z,21.43
2018-08-09T07:58:52.351Z,19.80
2018-08-09T08:01:21.291Z,20.30
2018-08-09T08:03:50.041Z,22.30
2018-08-09T08:06:18.975Z,20.27
2018-08-09T08:08:47.895Z,19.97
2018-08-09T08:11:16.615Z,20.87
2018-08-09T08:13:45.577Z,21.80
2018-08-09T08:16:14.136Z,19.90
2018-08-09T08:18:43.004Z,21.97
2018-08-09T08:21:12.144Z,20.07
2018-08-09T08:23:40.752Z,21.47
2018-08-09T08:26:09.458Z,21.65
2018-08-09T08:28:38.166Z,23.07
2018-08-09T08:31:07.394Z,22.95
2018-08-09T08:33:36.197Z,22.20
2018-08-09T08:36:04.905Z,23.40
2018-08-09T08:38:33.749Z,23.15
2018-08-09T08:41:02.553Z,21.23
2018-08-09T08:43:31.134Z,24.87
2018-08-09T08:45:59.708Z,24.98
2018-08-09T08:48:28.250Z,21.95
2018-08-09T08:50:57.115Z,21.60
2018-08-09T08:53:25.781Z,22.37
2018-08-09T08:55:54.601Z,22.73
2018-08-09T08:58:23.452Z,20.62
2018-08-09T09:00:52.251Z,19.40
2018-08-09T09:03:20.880Z,17.70
2018-08-09T09:05:49.487Z,15.80
2018-08-09T09:08:18.471Z,16.15
2018-08-09T09:10:51.300Z,15.35
2018-08-09T09:13:20.250Z,13.58
2018-08-09T09:15:48.833Z,13.25
2018-08-09T09:18:17.720Z,11.70
2018-08-09T09:20:46.523Z,11.60
2018-08-09T09:23:15.313Z,11.53
2018-08-09T09:25:44.060Z,11.57
2018-08-09T09:28:12.965Z,9.93
2018-08-09T09:30:41.637Z,10.20
2018-08-09T09:33:10.401Z,8.78
2018-08-09T09:35:39.347Z,8.73
2018-08-09T09:38:08.065Z,9.00
2018-08-09T09:40:37.044Z,8.75
2018-08-09T09:43:06.726Z,8.05
2018-08-09T09:45:35.478Z,8.35
2018-08-09T09:48:04.756Z,7.22
2018-08-09T09:50:33.362Z,7.25
2018-08-09T09:53:02.532Z,6.92
2018-08-09T09:55:31.241Z,6.17
2018-08-09T09:58:00.067Z,6.30
2018-08-09T10:00:29.311Z,6.45
2018-08-09T10:02:58.349Z,5.87
2018-08-09T10:05:26.966Z,6.80
2018-08-09T10:07:55.650Z,6.15
2018-08-09T10:10:24.828Z,6.10
2018-08-09T10:12:53.679Z,6.10
2018-08-09T10:15:22.536Z,5.40
2018-08-09T10:17:51.565Z,5.58
2018-08-09T10:20:20.638Z,5.55
2018-08-09T10:22:49.413Z,5.00
2018-08-09T10:25:18.178Z,5.12
2018-08-09T10:27:46.965Z,4.42
2018-08-09T10:30:15.816Z,5.00
2018-08-09T10:32:45.241Z,5.00
2018-08-09T10:35:13.892Z,4.87
2018-08-09T10:40:17.675Z,4.70
2018-08-09T10:42:46.233Z,5.30
2018-08-09T10:45:14.832Z,5.08
2018-08-09T10:47:43.622Z,5.28
2018-08-09T10:50:12.215Z,4.62
2018-08-09T10:52:41.142Z,4.85
2018-08-09T10:55:09.930Z,4.30
2018-08-09T10:57:38.838Z,4.83
2018-08-09T11:00:09.767Z,4.58
2018-08-09T11:02:38.666Z,4.97
2018-08-09T11:05:07.974Z,5.00
2018-08-09T11:07:36.805Z,4.92
2018-08-09T11:10:06.411Z,5.25
2018-08-09T11:12:35.209Z,5.08
2018-08-09T11:15:04.651Z,4.70
2018-08-09T11:17:33.789Z,5.37
2018-08-09T11:20:02.680Z,4.95
2018-08-09T11:22:31.296Z,5.30
2018-08-09T11:25:00.272Z,5.17
2018-08-09T11:27:29.131Z,4.90
2018-08-09T11:29:57.883Z,5.20
2018-08-09T11:32:26.467Z,4.85
2018-08-09T11:34:55.561Z,5.25
2018-08-09T11:37:24.327Z,4.30
2018-08-09T11:39:53.073Z,4.58
2018-08-09T11:42:21.651Z,4.50
2018-08-09T11:44:50.280Z,5.05
2018-08-09T11:47:18.865Z,5.15
2018-08-09T11:49:47.909Z,4.67
2018-08-09T11:52:16.952Z,4.90
2018-08-09T11:54:46.088Z,4.80
2018-08-09T11:57:14.880Z,4.67
2018-08-09T11:59:43.636Z,4.80
2018-08-09T12:02:12.387Z,4.90
2018-08-09T12:04:41.307Z,5.08
2018-08-09T12:07:10.397Z,4.87
2018-08-09T12:09:39.105Z,4.75
2018-08-09T12:12:08.095Z,5.47
2018-08-09T12:14:37.122Z,5.62
2018-08-09T12:17:06.054Z,4.55
2018-08-09T12:19:34.645Z,5.15
2018-08-09T12:22:03.319Z,5.00
2018-08-09T12:24:31.934Z,5.03
2018-08-09T12:27:00.821Z,4.92
2018-08-09T12:29:29.766Z,4.87
2018-08-09T12:31:58.471Z,5.20
2018-08-09T12:34:27.451Z,5.28
2018-08-09T12:36:56.125Z,5.00
2018-08-09T12:39:24.753Z,5.10
2018-08-09T12:41:53.586Z,5.12
2018-08-09T12:44:22.205Z,5.25
2018-08-09T12:46:51.364Z,4.83
2018-08-09T12:49:20.233Z,4.33
2018-08-09T12:51:48.869Z,5.00
2018-08-09T12:54:17.809Z,4.83
2018-08-09T12:56:46.801Z,4.67
2018-08-09T12:59:15.406Z,4.45
2018-08-09T13:01:44.395Z,4.65
2018-08-09T13:04:13.067Z,4.75
2018-08-09T13:06:41.778Z,4.78
2018-08-09T13:09:11.564Z,4.70
2018-08-09T13:11:40.316Z,4.62
2018-08-09T13:14:09.828Z,4.83
2018-08-09T13:16:38.776Z,5.20
2018-08-09T13:19:07.897Z,4.70
2018-08-09T13:21:36.716Z,5.03
2018-08-09T13:24:05.356Z,5.05
2018-08-09T13:26:34.278Z,4.70
2018-08-09T13:29:03.010Z,5.40
2018-08-09T13:31:32.217Z,5.20
2018-08-09T13:34:01.319Z,5.45
2018-08-09T13:36:30.185Z,5.50
2018-08-09T13:38:59.344Z,5.00
2018-08-09T13:41:28.165Z,5.10
2018-08-09T13:43:57.229Z,5.22
2018-08-09T13:46:26.275Z,5.30
2018-08-09T13:48:55.016Z,5.30
2018-08-09T13:51:23.775Z,5.03
2018-08-09T13:53:52.707Z,5.62
2018-08-09T13:56:21.339Z,4.83
2018-08-09T13:58:50.210Z,5.12
2018-08-09T14:01:19.219Z,4.87
2018-08-09T14:03:48.062Z,4.97
2018-08-09T14:06:17.284Z,5.42
2018-08-09T14:08:46.095Z,5.05
2018-08-09T14:11:14.759Z,5.42
2018-08-09T14:13:43.638Z,5.03
2018-08-09T14:16:12.518Z,2.60
2018-08-09T14:18:41.355Z,2.52
2018-08-09T14:21:10.124Z,2.15
2018-08-09T14:23:38.775Z,2.30
2018-08-09T14:26:07.582Z,2.85
2018-08-09T14:28:36.312Z,3.17
2018-08-09T14:31:05.105Z,2.97
2018-08-09T14:33:34.053Z,3.30
2018-08-09T14:36:02.935Z,3.63
2018-08-09T14:38:31.510Z,3.60
2018-08-09T14:41:00.548Z,3.30
2018-08-09T14:43:29.163Z,3.10
2018-08-09T14:45:58.272Z,3.60
2018-08-09T14:48:26.949Z,3.73
2018-08-09T14:50:55.924Z,3.90
2018-08-09T14:53:24.524Z,4.23
2018-08-09T14:55:53.198Z,4.97
2018-08-09T14:58:22.069Z,4.23
2018-08-09T15:00:50.863Z,4.63
2018-08-09T15:03:19.603Z,5.30
2018-08-09T15:05:48.541Z,4.27
2018-08-09T15:08:17.420Z,5.33
2018-08-09T15:10:46.102Z,5.87
2018-08-09T15:13:14.776Z,3.50
2018-08-09T15:15:43.455Z,4.70
2018-08-09T15:18:12.302Z,3.53
2018-08-09T15:20:40.865Z,4.63
2018-08-09T15:23:09.478Z,4.97
2018-08-09T15:25:38.189Z,2.97
2018-08-09T15:28:07.170Z,3.40
2018-08-09T15:30:36.471Z,2.93
2018-08-09T15:33:05.693Z,2.87
2018-08-09T15:35:34.459Z,2.43
2018-08-09T15:38:03.551Z,2.70
2018-08-09T15:40:32.365Z,2.87
2018-08-09T15:43:01.261Z,2.33
2018-08-09T15:45:29.885Z,2.43
2018-08-09T15:47:58.799Z,2.20
2018-08-09T15:50:27.938Z,2.10
2018-08-09T15:52:56.914Z,2.03
2018-08-09T15:55:25.707Z,2.13
2018-08-09T15:57:54.656Z,2.60
2018-08-09T16:00:24.376Z,2.20
2018-08-09T16:02:53.505Z,2.00
2018-08-09T16:05:22.628Z,1.80
2018-08-09T16:07:51.546Z,1.92
2018-08-09T16:10:20.263Z,2.00
2018-08-09T16:12:49.149Z,1.87
2018-08-09T16:15:19.118Z,2.00
2018-08-09T16:17:48.620Z,2.22
2018-08-09T16:20:17.553Z,1.70
2018-08-09T16:22:47.130Z,1.93
2018-08-09T16:25:19.526Z,1.80
2018-08-09T16:27:49.267Z,2.70
2018-08-09T16:30:19.791Z,2.20
2018-08-09T16:32:48.836Z,2.40
2018-08-09T16:35:17.635Z,2.80
2018-08-09T16:37:47.117Z,2.53
2018-08-09T16:40:18.353Z,3.00
2018-08-09T16:42:47.182Z,3.17
2018-08-09T16:45:17.270Z,3.27
2018-08-09T16:47:46.182Z,3.77
2018-08-09T16:50:17.666Z,4.10
2018-08-09T16:52:47.541Z,3.23
2018-08-09T16:55:17.035Z,3.63
2018-08-09T16:57:46.082Z,3.50
2018-08-09T17:00:17.383Z,3.53
2018-08-09T17:02:46.423Z,3.40
2018-08-09T17:05:18.305Z,3.73
2018-08-09T17:07:47.185Z,3.33
2018-08-09T17:10:21.486Z,3.40
2018-08-09T17:12:50.659Z,3.30
2018-08-09T17:15:21.767Z,3.30
2018-08-09T17:17:50.760Z,3.50
2018-08-09T17:20:22.034Z,3.00
2018-08-09T17:22:50.940Z,2.80
2018-08-09T17:25:20.004Z,2.67
2018-08-09T17:27:49.772Z,2.60
2018-08-09T17:30:20.304Z,2.70
2018-08-09T17:32:49.402Z,2.33
2018-08-09T17:35:18.783Z,2.33
2018-08-09T17:37:47.831Z,2.57
2018-08-09T17:40:19.522Z,2.33
2018-08-09T17:42:49.672Z,2.30
2018-08-09T17:45:19.665Z,2.43
2018-08-09T17:47:48.345Z,2.43
2018-08-09T17:50:17.187Z,2.30
2018-08-09T17:52:46.063Z,2.30
2018-08-09T17:55:15.946Z,2.40
2018-08-09T17:57:45.772Z,2.20
2018-08-09T18:00:17.991Z,2.60
2018-08-09T18:02:46.969Z,2.00
2018-08-09T18:05:15.644Z,2.30
2018-08-09T18:07:44.859Z,2.37
2018-08-09T18:10:16.854Z,2.20
2018-08-09T18:12:46.131Z,2.27
2018-08-09T18:15:15.132Z,2.30
2018-08-09T18:17:43.795Z,2.37
2018-08-09T18:20:14.682Z,2.50
2018-08-09T18:22:44.314Z,2.47
2018-08-09T18:25:14.065Z,2.30
2018-08-09T18:27:42.920Z,2.27
2018-08-09T18:30:14.633Z,2.70
2018-08-09T18:32:43.812Z,2.57
2018-08-09T18:35:15.029Z,2.50
2018-08-09T18:37:44.172Z,2.70
2018-08-09T18:40:19.692Z,2.90
2018-08-09T18:42:48.555Z,3.00
2018-08-09T18:45:17.536Z,2.60
2018-08-09T18:47:46.369Z,2.50
2018-08-09T18:50:20.654Z,2.60
2018-08-09T18:52:49.486Z,2.53
2018-08-09T18:55:19.398Z,2.70
2018-08-09T18:57:48.419Z,2.67
2018-08-09T19:00:21.477Z,2.77
2018-08-09T19:02:50.835Z,2.80
2018-08-09T19:05:19.487Z,2.57
2018-08-09T19:07:48.339Z,2.70
2018-08-09T19:10:23.375Z,2.90
2018-08-09T19:12:52.455Z,2.63
2018-08-09T19:15:21.306Z,2.50
2018-08-09T19:17:50.221Z,2.27
2018-08-09T19:20:24.151Z,2.83
2018-08-09T19:22:53.462Z,2.57
2018-08-09T19:25:22.186Z,2.70
2018-08-09T19:27:51.147Z,2.80
2018-08-09T19:30:22.382Z,2.57
2018-08-09T19:32:51.558Z,2.30
2018-08-09T19:35:21.021Z,2.37
2018-08-09T19:37:50.088Z,2.50
2018-08-09T19:40:23.854Z,2.57
2018-08-09T19:42:52.707Z,1.93
2018-08-09T19:45:21.680Z,1.97
2018-08-09T19:47:50.543Z,2.10
2018-08-09T19:50:20.950Z,1.90
2018-08-09T19:52:49.784Z,2.07
2018-08-09T19:55:20.132Z,1.80
2018-08-09T19:57:49.766Z,2.07
2018-08-09T20:00:19.975Z,2.17
2018-08-09T20:02:49.341Z,2.00
2018-08-09T20:05:18.322Z,1.77
2018-08-09T20:07:47.118Z,1.63
2018-08-09T20:10:16.599Z,1.90
2018-08-09T20:12:46.425Z,1.90
2018-08-09T20:15:17.184Z,1.57
2018-08-09T20:17:46.087Z,1.43
2018-08-09T20:20:16.223Z,1.77
2018-08-09T20:22:45.177Z,2.03
2018-08-09T20:25:14.407Z,1.77
2018-08-09T20:27:43.674Z,1.80
2018-08-09T20:30:14.972Z,1.83
2018-08-09T20:32:44.493Z,1.87
2018-08-09T20:35:15.531Z,1.40
2018-08-09T20:37:45.317Z,1.30
2018-08-09T20:40:14.566Z,1.50
2018-08-09T20:42:43.995Z,1.67
2018-08-09T20:45:14.203Z,1.53
2018-08-09T20:47:42.801Z,1.60
2018-08-09T20:50:14.069Z,1.60
2018-08-09T20:52:43.960Z,1.63
2018-08-09T20:55:12.567Z,1.70
2018-08-09T20:57:42.399Z,1.30
2018-08-09T21:00:15.976Z,1.70
2018-08-09T21:02:45.873Z,1.43
2018-08-09T21:05:18.763Z,1.40
2018-08-09T21:07:47.344Z,1.50
2018-08-09T21:10:16.307Z,1.60
2018-08-09T21:12:45.179Z,1.40
2018-08-09T21:15:14.131Z,1.50
2018-08-09T21:17:43.286Z,1.47
2018-08-09T21:20:12.681Z,1.37
2018-08-09T21:22:42.075Z,1.13
2018-08-09T21:25:11.495Z,1.70
2018-08-09T21:27:40.290Z,1.43
2018-08-09T21:30:10.948Z,1.60
2018-08-09T21:32:39.590Z,1.40
2018-08-09T21:35:09.177Z,1.47
2018-08-09T21:37:38.073Z,1.30
2018-08-09T21:40:08.136Z,1.20
2018-08-09T21:42:37.122Z,1.20
2018-08-09T21:45:08.535Z,1.20
2018-08-09T21:47:37.805Z,1.20
2018-08-09T21:50:08.482Z,1.40
2018-08-09T21:52:37.329Z,1.53
2018-08-09T21:55:06.661Z,1.27
2018-08-09T21:57:35.348Z,1.50
2018-08-09T22:00:05.542Z,1.43
2018-08-09T22:02:34.319Z,1.47
2018-08-09T22:05:08.019Z,1.70
2018-08-09T22:07:41.833Z,1.73
2018-08-09T22:10:15.696Z,1.60
2018-08-09T22:12:49.511Z,1.43
2018-08-09T22:15:23.348Z,1.53
2018-08-09T22:17:57.205Z,1.30
2018-08-09T22:20:30.991Z,1.67
2018-08-09T22:22:59.743Z,1.70
2018-08-09T22:25:28.647Z,1.50
2018-08-09T22:27:57.581Z,1.50
2018-08-09T22:30:26.339Z,1.50
2018-08-09T22:32:54.947Z,1.57
2018-08-09T22:35:23.874Z,1.50
2018-08-09T22:37:52.668Z,1.60
2018-08-09T22:40:21.276Z,1.73
2018-08-09T22:42:50.125Z,1.60
2018-08-09T22:45:18.853Z,1.70
2018-08-09T22:47:47.829Z,1.33
2018-08-09T22:50:16.666Z,1.67
2018-08-09T22:52:45.516Z,1.60
2018-08-09T22:55:14.445Z,1.47
2018-08-09T22:57:42.987Z,1.30
2018-08-09T23:00:19.148Z,1.40
2018-08-09T23:02:47.926Z,1.10
2018-08-09T23:05:16.805Z,1.30
2018-08-09T23:07:45.394Z,0.87
2018-08-09T23:10:14.250Z,0.70
2018-08-09T23:12:43.209Z,0.80
2018-08-09T23:15:12.388Z,0.80
2018-08-09T23:17:40.929Z,0.67
2018-08-09T23:20:10.095Z,0.80
2018-08-09T23:22:38.841Z,0.60
2018-08-09T23:25:11.455Z,0.70
2018-08-09T23:27:40.415Z,0.90
2018-08-09T23:30:10.153Z,0.60
2018-08-09T23:32:38.943Z,1.03
2018-08-09T23:35:09.542Z,1.03
2018-08-09T23:37:38.279Z,0.93
2018-08-09T23:40:09.016Z,0.90
2018-08-09T23:42:38.333Z,1.20
2018-08-09T23:45:08.902Z,0.80
2018-08-09T23:47:39.175Z,1.10
2018-08-09T23:50:09.690Z,1.17
2018-08-09T23:52:39.008Z,0.70
2018-08-09T23:55:11.149Z,1.07
2018-08-09T23:57:40.053Z,1.00
